sensor_id;sensor_type;location;lat;lon;timestamp;temperature;humidity
41756;DHT22;27435;48.480;9.258;2023-07-13T00:01:15;19.30;95.10
41756;DHT22;27435;48.480;9.258;2023-07-13T00:03:41;19.40;95.40
41756;DHT22;27435;48.480;9.258;2023-07-13T00:06:07;19.30;94.70
41756;DHT22;27435;48.480;9.258;2023-07-13T00:08:34;19.20;96.00
41756;DHT22;27435;48.480;9.258;2023-07-13T00:11:01;18.90;96.20
41756;DHT22;27435;48.480;9.258;2023-07-13T00:13:27;18.80;97.00
41756;DHT22;27435;48.480;9.258;2023-07-13T00:15:53;18.80;97.30
41756;DHT22;27435;48.480;9.258;2023-07-13T00:18:20;18.70;97.00
41756;DHT22;27435;48.480;9.258;2023-07-13T00:20:46;18.70;96.60
41756;DHT22;27435;48.480;9.258;2023-07-13T00:23:11;18.80;96.90
41756;DHT22;27435;48.480;9.258;2023-07-13T00:25:37;18.70;97.20
41756;DHT22;27435;48.480;9.258;2023-07-13T00:28:03;18.60;97.50
41756;DHT22;27435;48.480;9.258;2023-07-13T00:30:29;18.70;97.60
41756;DHT22;27435;48.480;9.258;2023-07-13T00:32:55;18.50;98.10
41756;DHT22;27435;48.480;9.258;2023-07-13T00:35:21;18.30;99.00
41756;DHT22;27435;48.480;9.258;2023-07-13T00:37:46;18.30;99.00
41756;DHT22;27435;48.480;9.258;2023-07-13T00:40:13;18.30;99.00
41756;DHT22;27435;48.480;9.258;2023-07-13T00:42:39;18.40;98.80
41756;DHT22;27435;48.480;9.258;2023-07-13T00:47:38;18.50;98.00
41756;DHT22;27435;48.480;9.258;2023-07-13T00:50:05;18.60;97.70
41756;DHT22;27435;48.480;9.258;2023-07-13T00:52:33;18.50;99.00
41756;DHT22;27435;48.480;9.258;2023-07-13T00:54:59;18.40;99.00
41756;DHT22;27435;48.480;9.258;2023-07-13T00:57:25;18.40;98.80
41756;DHT22;27435;48.480;9.258;2023-07-13T00:59:55;18.40;98.30
41756;DHT22;27435;48.480;9.258;2023-07-13T01:02:24;18.40;99.00
41756;DHT22;27435;48.480;9.258;2023-07-13T01:04:50;18.50;98.50
41756;DHT22;27435;48.480;9.258;2023-07-13T01:07:16;18.50;98.30
41756;DHT22;27435;48.480;9.258;2023-07-13T01:09:42;18.50;98.60
41756;DHT22;27435;48.480;9.258;2023-07-13T01:12:08;18.60;97.70
41756;DHT22;27435;48.480;9.258;2023-07-13T01:14:33;18.50;97.40
41756;DHT22;27435;48.480;9.258;2023-07-13T01:16:59;18.40;97.60
41756;DHT22;27435;48.480;9.258;2023-07-13T01:19:40;18.60;96.70
41756;DHT22;27435;48.480;9.258;2023-07-13T01:22:16;18.60;96.20
41756;DHT22;27435;48.480;9.258;2023-07-13T01:24:43;18.50;96.20
41756;DHT22;27435;48.480;9.258;2023-07-13T01:27:12;18.50;96.50
41756;DHT22;27435;48.480;9.258;2023-07-13T01:29:39;18.60;96.20
41756;DHT22;27435;48.480;9.258;2023-07-13T01:32:13;18.60;96.50
41756;DHT22;27435;48.480;9.258;2023-07-13T01:34:39;18.60;96.20
41756;DHT22;27435;48.480;9.258;2023-07-13T01:37:08;18.60;95.80
41756;DHT22;27435;48.480;9.258;2023-07-13T01:39:35;18.40;95.00
41756;DHT22;27435;48.480;9.258;2023-07-13T01:42:01;18.30;95.30
41756;DHT22;27435;48.480;9.258;2023-07-13T01:44:27;18.40;95.60
41756;DHT22;27435;48.480;9.258;2023-07-13T01:46:53;18.40;95.50
41756;DHT22;27435;48.480;9.258;2023-07-13T01:49:19;18.50;95.20
41756;DHT22;27435;48.480;9.258;2023-07-13T01:51:44;18.70;96.10
41756;DHT22;27435;48.480;9.258;2023-07-13T01:54:10;18.70;97.40
41756;DHT22;27435;48.480;9.258;2023-07-13T01:56:35;18.50;98.50
41756;DHT22;27435;48.480;9.258;2023-07-13T01:59:01;18.30;99.00
41756;DHT22;27435;48.480;9.258;2023-07-13T02:01:27;18.10;99.00
41756;DHT22;27435;48.480;9.258;2023-07-13T02:03:52;18.00;99.00
41756;DHT22;27435;48.480;9.258;2023-07-13T02:06:18;17.90;99.00
41756;DHT22;27435;48.480;9.258;2023-07-13T02:08:44;17.70;99.00
41756;DHT22;27435;48.480;9.258;2023-07-13T02:11:09;17.80;99.00
41756;DHT22;27435;48.480;9.258;2023-07-13T02:13:35;17.80;99.00
41756;DHT22;27435;48.480;9.258;2023-07-13T02:16:01;17.70;99.00
41756;DHT22;27435;48.480;9.258;2023-07-13T02:18:26;17.60;99.00
41756;DHT22;27435;48.480;9.258;2023-07-13T02:20:52;17.60;99.00
41756;DHT22;27435;48.480;9.258;2023-07-13T02:23:18;17.50;99.00
41756;DHT22;27435;48.480;9.258;2023-07-13T02:25:44;17.50;99.00
41756;DHT22;27435;48.480;9.258;2023-07-13T02:28:10;17.60;99.00
41756;DHT22;27435;48.480;9.258;2023-07-13T02:30:36;17.60;99.00
41756;DHT22;27435;48.480;9.258;2023-07-13T02:33:01;17.70;99.00
41756;DHT22;27435;48.480;9.258;2023-07-13T02:35:27;17.70;99.00
41756;DHT22;27435;48.480;9.258;2023-07-13T02:37:53;17.50;99.00
41756;DHT22;27435;48.480;9.258;2023-07-13T02:40:19;17.50;99.00
41756;DHT22;27435;48.480;9.258;2023-07-13T02:42:44;17.40;99.00
41756;DHT22;27435;48.480;9.258;2023-07-13T02:45:10;17.40;99.00
41756;DHT22;27435;48.480;9.258;2023-07-13T02:47:36;17.40;99.00
41756;DHT22;27435;48.480;9.258;2023-07-13T02:50:02;17.30;99.00
41756;DHT22;27435;48.480;9.258;2023-07-13T02:52:28;17.20;99.00
41756;DHT22;27435;48.480;9.258;2023-07-13T02:54:54;16.90;99.00
41756;DHT22;27435;48.480;9.258;2023-07-13T02:57:19;16.70;99.00
41756;DHT22;27435;48.480;9.258;2023-07-13T02:59:46;16.50;99.00
41756;DHT22;27435;48.480;9.258;2023-07-13T03:02:11;16.50;99.00
41756;DHT22;27435;48.480;9.258;2023-07-13T03:04:37;16.50;99.00
41756;DHT22;27435;48.480;9.258;2023-07-13T03:07:03;16.40;99.00
41756;DHT22;27435;48.480;9.258;2023-07-13T03:09:30;16.20;99.00
41756;DHT22;27435;48.480;9.258;2023-07-13T03:11:55;16.30;99.00
41756;DHT22;27435;48.480;9.258;2023-07-13T03:14:24;16.40;99.00
41756;DHT22;27435;48.480;9.258;2023-07-13T03:16:49;16.30;99.00
41756;DHT22;27435;48.480;9.258;2023-07-13T03:19:15;16.20;99.00
41756;DHT22;27435;48.480;9.258;2023-07-13T03:21:41;16.20;99.00
41756;DHT22;27435;48.480;9.258;2023-07-13T03:24:07;16.20;99.00
41756;DHT22;27435;48.480;9.258;2023-07-13T03:26:32;16.10;99.00
41756;DHT22;27435;48.480;9.258;2023-07-13T03:28:58;16.00;99.00
41756;DHT22;27435;48.480;9.258;2023-07-13T03:31:32;15.90;99.00
41756;DHT22;27435;48.480;9.258;2023-07-13T03:33:58;15.90;99.00
41756;DHT22;27435;48.480;9.258;2023-07-13T03:36:27;16.00;99.00
41756;DHT22;27435;48.480;9.258;2023-07-13T03:38:55;15.90;99.00
41756;DHT22;27435;48.480;9.258;2023-07-13T03:41:21;15.90;99.00
41756;DHT22;27435;48.480;9.258;2023-07-13T03:43:48;15.80;99.00
41756;DHT22;27435;48.480;9.258;2023-07-13T03:46:14;15.80;99.00
41756;DHT22;27435;48.480;9.258;2023-07-13T03:48:41;15.80;99.00
41756;DHT22;27435;48.480;9.258;2023-07-13T03:51:09;15.80;99.00
41756;DHT22;27435;48.480;9.258;2023-07-13T03:53:38;15.80;99.00
41756;DHT22;27435;48.480;9.258;2023-07-13T03:56:04;15.80;99.00
41756;DHT22;27435;48.480;9.258;2023-07-13T03:58:33;15.70;99.00
41756;DHT22;27435;48.480;9.258;2023-07-13T04:01:00;15.60;99.00
41756;DHT22;27435;48.480;9.258;2023-07-13T04:03:26;15.70;99.00
41756;DHT22;27435;48.480;9.258;2023-07-13T04:05:54;15.80;99.00
41756;DHT22;27435;48.480;9.258;2023-07-13T04:08:20;15.80;99.00
41756;DHT22;27435;48.480;9.258;2023-07-13T04:10:46;15.80;99.00
41756;DHT22;27435;48.480;9.258;2023-07-13T04:13:11;15.90;99.00
41756;DHT22;27435;48.480;9.258;2023-07-13T04:15:39;16.10;99.00
41756;DHT22;27435;48.480;9.258;2023-07-13T04:18:05;16.20;99.00
41756;DHT22;27435;48.480;9.258;2023-07-13T04:20:30;16.10;99.00
41756;DHT22;27435;48.480;9.258;2023-07-13T04:22:56;16.20;99.00
41756;DHT22;27435;48.480;9.258;2023-07-13T04:25:23;16.20;99.00
41756;DHT22;27435;48.480;9.258;2023-07-13T04:27:49;16.30;99.00
41756;DHT22;27435;48.480;9.258;2023-07-13T04:30:15;16.30;99.00
41756;DHT22;27435;48.480;9.258;2023-07-13T04:32:40;16.60;99.00
41756;DHT22;27435;48.480;9.258;2023-07-13T04:35:06;16.80;99.00
41756;DHT22;27435;48.480;9.258;2023-07-13T04:37:32;16.90;99.00
41756;DHT22;27435;48.480;9.258;2023-07-13T04:39:57;16.90;99.00
41756;DHT22;27435;48.480;9.258;2023-07-13T04:42:23;17.00;99.00
41756;DHT22;27435;48.480;9.258;2023-07-13T04:44:50;17.10;99.00
41756;DHT22;27435;48.480;9.258;2023-07-13T04:47:16;17.20;99.00
41756;DHT22;27435;48.480;9.258;2023-07-13T04:49:42;17.30;99.00
41756;DHT22;27435;48.480;9.258;2023-07-13T04:52:08;17.30;99.00
41756;DHT22;27435;48.480;9.258;2023-07-13T04:54:34;17.30;99.00
41756;DHT22;27435;48.480;9.258;2023-07-13T04:57:00;17.30;99.00
41756;DHT22;27435;48.480;9.258;2023-07-13T04:59:26;17.20;99.00
41756;DHT22;27435;48.480;9.258;2023-07-13T05:01:53;17.10;99.00
41756;DHT22;27435;48.480;9.258;2023-07-13T05:04:19;17.00;99.00
41756;DHT22;27435;48.480;9.258;2023-07-13T05:06:44;17.10;99.00
41756;DHT22;27435;48.480;9.258;2023-07-13T05:09:10;17.10;99.00
41756;DHT22;27435;48.480;9.258;2023-07-13T05:11:38;17.10;99.00
41756;DHT22;27435;48.480;9.258;2023-07-13T05:14:03;17.30;99.00
41756;DHT22;27435;48.480;9.258;2023-07-13T05:16:29;17.50;99.00
41756;DHT22;27435;48.480;9.258;2023-07-13T05:18:54;17.60;99.00
41756;DHT22;27435;48.480;9.258;2023-07-13T05:21:20;17.60;99.00
41756;DHT22;27435;48.480;9.258;2023-07-13T05:23:46;17.60;99.00
41756;DHT22;27435;48.480;9.258;2023-07-13T05:26:12;17.80;99.00
41756;DHT22;27435;48.480;9.258;2023-07-13T05:28:38;17.80;99.00
41756;DHT22;27435;48.480;9.258;2023-07-13T05:31:04;17.70;99.00
41756;DHT22;27435;48.480;9.258;2023-07-13T05:33:30;17.60;99.00
41756;DHT22;27435;48.480;9.258;2023-07-13T05:35:56;17.80;99.00
41756;DHT22;27435;48.480;9.258;2023-07-13T05:38:22;18.20;98.10
41756;DHT22;27435;48.480;9.258;2023-07-13T05:40:49;18.50;96.20
41756;DHT22;27435;48.480;9.258;2023-07-13T05:43:15;18.60;95.50
41756;DHT22;27435;48.480;9.258;2023-07-13T05:45:41;18.60;94.60
41756;DHT22;27435;48.480;9.258;2023-07-13T05:48:07;18.80;94.60
41756;DHT22;27435;48.480;9.258;2023-07-13T05:50:32;19.00;93.50
41756;DHT22;27435;48.480;9.258;2023-07-13T05:52:58;19.20;92.90
41756;DHT22;27435;48.480;9.258;2023-07-13T05:55:23;19.20;92.90
41756;DHT22;27435;48.480;9.258;2023-07-13T05:57:49;19.30;92.80
41756;DHT22;27435;48.480;9.258;2023-07-13T06:00:15;20.00;90.80
41756;DHT22;27435;48.480;9.258;2023-07-13T06:02:41;20.70;87.50
41756;DHT22;27435;48.480;9.258;2023-07-13T06:05:07;21.30;85.10
41756;DHT22;27435;48.480;9.258;2023-07-13T06:07:33;22.20;80.90
41756;DHT22;27435;48.480;9.258;2023-07-13T06:09:59;22.90;79.30
41756;DHT22;27435;48.480;9.258;2023-07-13T06:12:25;23.50;75.90
41756;DHT22;27435;48.480;9.258;2023-07-13T06:14:50;23.30;76.00
41756;DHT22;27435;48.480;9.258;2023-07-13T06:17:16;23.40;73.80
41756;DHT22;27435;48.480;9.258;2023-07-13T06:19:42;23.90;73.50
41756;DHT22;27435;48.480;9.258;2023-07-13T06:22:07;24.40;71.50
41756;DHT22;27435;48.480;9.258;2023-07-13T06:24:33;24.40;69.50
41756;DHT22;27435;48.480;9.258;2023-07-13T06:26:59;23.90;71.20
41756;DHT22;27435;48.480;9.258;2023-07-13T06:29:24;24.20;70.60
41756;DHT22;27435;48.480;9.258;2023-07-13T06:31:50;23.70;70.60
41756;DHT22;27435;48.480;9.258;2023-07-13T06:34:16;24.10;69.90
41756;DHT22;27435;48.480;9.258;2023-07-13T06:36:41;24.80;67.80
41756;DHT22;27435;48.480;9.258;2023-07-13T06:39:07;24.90;66.40
41756;DHT22;27435;48.480;9.258;2023-07-13T06:41:33;25.40;65.10
41756;DHT22;27435;48.480;9.258;2023-07-13T06:43:59;26.00;63.80
41756;DHT22;27435;48.480;9.258;2023-07-13T06:46:25;26.00;63.60
41756;DHT22;27435;48.480;9.258;2023-07-13T06:48:51;26.40;62.20
41756;DHT22;27435;48.480;9.258;2023-07-13T06:51:16;26.60;60.50
41756;DHT22;27435;48.480;9.258;2023-07-13T06:53:42;26.70;60.30
41756;DHT22;27435;48.480;9.258;2023-07-13T06:56:09;26.70;60.10
41756;DHT22;27435;48.480;9.258;2023-07-13T06:58:36;26.60;59.70
41756;DHT22;27435;48.480;9.258;2023-07-13T07:01:03;26.60;60.00
41756;DHT22;27435;48.480;9.258;2023-07-13T07:03:28;26.70;59.30
41756;DHT22;27435;48.480;9.258;2023-07-13T07:06:00;27.00;58.00
41756;DHT22;27435;48.480;9.258;2023-07-13T07:08:26;26.90;55.90
41756;DHT22;27435;48.480;9.258;2023-07-13T07:10:51;26.80;55.20
41756;DHT22;27435;48.480;9.258;2023-07-13T07:13:19;26.00;55.60
41756;DHT22;27435;48.480;9.258;2023-07-13T07:15:45;25.10;58.10
41756;DHT22;27435;48.480;9.258;2023-07-13T07:18:10;25.20;59.20
41756;DHT22;27435;48.480;9.258;2023-07-13T07:20:36;25.70;58.20
41756;DHT22;27435;48.480;9.258;2023-07-13T07:23:02;25.60;57.80
41756;DHT22;27435;48.480;9.258;2023-07-13T07:25:27;25.50;57.40
41756;DHT22;27435;48.480;9.258;2023-07-13T07:27:57;25.20;58.40
41756;DHT22;27435;48.480;9.258;2023-07-13T07:30:24;24.70;59.40
41756;DHT22;27435;48.480;9.258;2023-07-13T07:32:49;24.70;59.40
41756;DHT22;27435;48.480;9.258;2023-07-13T07:35:15;24.50;59.30
41756;DHT22;27435;48.480;9.258;2023-07-13T07:37:40;24.50;58.40
41756;DHT22;27435;48.480;9.258;2023-07-13T07:40:07;24.10;59.00
41756;DHT22;27435;48.480;9.258;2023-07-13T07:42:33;23.90;57.50
41756;DHT22;27435;48.480;9.258;2023-07-13T07:44:59;23.90;56.60
41756;DHT22;27435;48.480;9.258;2023-07-13T07:47:26;23.80;56.70
41756;DHT22;27435;48.480;9.258;2023-07-13T07:49:52;23.20;58.80
41756;DHT22;27435;48.480;9.258;2023-07-13T07:52:18;22.80;61.10
41756;DHT22;27435;48.480;9.258;2023-07-13T07:54:44;22.60;60.40
41756;DHT22;27435;48.480;9.258;2023-07-13T07:57:09;22.70;62.00
41756;DHT22;27435;48.480;9.258;2023-07-13T07:59:36;22.50;62.90
41756;DHT22;27435;48.480;9.258;2023-07-13T08:02:03;23.00;61.70
41756;DHT22;27435;48.480;9.258;2023-07-13T08:04:28;23.20;61.60
41756;DHT22;27435;48.480;9.258;2023-07-13T08:06:54;23.70;61.20
41756;DHT22;27435;48.480;9.258;2023-07-13T08:09:22;23.30;60.40
41756;DHT22;27435;48.480;9.258;2023-07-13T08:11:47;23.30;58.40
41756;DHT22;27435;48.480;9.258;2023-07-13T08:14:13;23.50;59.70
41756;DHT22;27435;48.480;9.258;2023-07-13T08:16:39;23.40;60.20
41756;DHT22;27435;48.480;9.258;2023-07-13T08:19:05;23.70;60.30
41756;DHT22;27435;48.480;9.258;2023-07-13T08:21:31;23.70;58.50
41756;DHT22;27435;48.480;9.258;2023-07-13T08:23:57;23.20;59.60
41756;DHT22;27435;48.480;9.258;2023-07-13T08:26:23;22.60;59.60
41756;DHT22;27435;48.480;9.258;2023-07-13T08:28:49;22.20;60.60
41756;DHT22;27435;48.480;9.258;2023-07-13T08:31:14;22.10;60.40
41756;DHT22;27435;48.480;9.258;2023-07-13T08:33:40;22.00;59.90
41756;DHT22;27435;48.480;9.258;2023-07-13T08:36:06;22.30;60.10
41756;DHT22;27435;48.480;9.258;2023-07-13T08:38:32;22.40;60.20
41756;DHT22;27435;48.480;9.258;2023-07-13T08:40:58;22.10;61.50
41756;DHT22;27435;48.480;9.258;2023-07-13T08:43:28;22.10;60.70
41756;DHT22;27435;48.480;9.258;2023-07-13T08:45:57;22.20;61.50
41756;DHT22;27435;48.480;9.258;2023-07-13T08:48:32;22.50;60.20
41756;DHT22;27435;48.480;9.258;2023-07-13T08:53:48;22.50;59.40
41756;DHT22;27435;48.480;9.258;2023-07-13T08:56:29;22.50;61.00
41756;DHT22;27435;48.480;9.258;2023-07-13T08:59:06;23.00;60.20
41756;DHT22;27435;48.480;9.258;2023-07-13T09:01:53;23.10;59.60
41756;DHT22;27435;48.480;9.258;2023-07-13T09:04:35;23.10;59.60
41756;DHT22;27435;48.480;9.258;2023-07-13T09:10:15;23.20;59.10
41756;DHT22;27435;48.480;9.258;2023-07-13T09:15:45;23.30;59.40
41756;DHT22;27435;48.480;9.258;2023-07-13T09:20:46;23.90;58.50
41756;DHT22;27435;48.480;9.258;2023-07-13T09:23:20;24.10;57.50
41756;DHT22;27435;48.480;9.258;2023-07-13T09:25:53;24.50;56.80
41756;DHT22;27435;48.480;9.258;2023-07-13T09:28:43;24.60;55.90
41756;DHT22;27435;48.480;9.258;2023-07-13T09:31:32;24.60;55.20
41756;DHT22;27435;48.480;9.258;2023-07-13T09:33:59;23.90;56.50
41756;DHT22;27435;48.480;9.258;2023-07-13T09:36:28;24.20;56.60
41756;DHT22;27435;48.480;9.258;2023-07-13T09:39:03;24.30;56.20
41756;DHT22;27435;48.480;9.258;2023-07-13T09:44:54;24.00;55.70
41756;DHT22;27435;48.480;9.258;2023-07-13T09:47:23;24.10;57.10
41756;DHT22;27435;48.480;9.258;2023-07-13T09:49:58;24.40;56.20
41756;DHT22;27435;48.480;9.258;2023-07-13T09:52:25;24.60;56.00
41756;DHT22;27435;48.480;9.258;2023-07-13T09:54:53;24.60;54.20
41756;DHT22;27435;48.480;9.258;2023-07-13T09:57:25;24.60;54.70
41756;DHT22;27435;48.480;9.258;2023-07-13T09:59:52;25.00;54.20
41756;DHT22;27435;48.480;9.258;2023-07-13T10:02:33;25.10;53.90
41756;DHT22;27435;48.480;9.258;2023-07-13T10:05:07;24.30;54.80
41756;DHT22;27435;48.480;9.258;2023-07-13T10:07:44;24.20;55.20
41756;DHT22;27435;48.480;9.258;2023-07-13T10:10:19;24.60;55.00
41756;DHT22;27435;48.480;9.258;2023-07-13T10:12:46;25.20;53.80
41756;DHT22;27435;48.480;9.258;2023-07-13T10:15:23;25.40;53.30
41756;DHT22;27435;48.480;9.258;2023-07-13T10:17:52;25.50;53.20
41756;DHT22;27435;48.480;9.258;2023-07-13T10:20:21;25.60;53.30
41756;DHT22;27435;48.480;9.258;2023-07-13T10:23:02;25.60;52.20
41756;DHT22;27435;48.480;9.258;2023-07-13T10:25:33;26.00;52.70
41756;DHT22;27435;48.480;9.258;2023-07-13T10:28:10;26.30;49.30
41756;DHT22;27435;48.480;9.258;2023-07-13T10:30:41;26.10;49.60
41756;DHT22;27435;48.480;9.258;2023-07-13T10:33:12;25.70;50.80
41756;DHT22;27435;48.480;9.258;2023-07-13T10:35:40;24.90;51.50
41756;DHT22;27435;48.480;9.258;2023-07-13T10:38:11;24.30;53.40
41756;DHT22;27435;48.480;9.258;2023-07-13T10:41:03;24.00;54.20
41756;DHT22;27435;48.480;9.258;2023-07-13T10:43:42;24.40;54.40
41756;DHT22;27435;48.480;9.258;2023-07-13T10:46:11;24.60;53.40
41756;DHT22;27435;48.480;9.258;2023-07-13T10:48:39;24.90;52.90
41756;DHT22;27435;48.480;9.258;2023-07-13T10:51:06;25.10;52.40
41756;DHT22;27435;48.480;9.258;2023-07-13T10:53:34;25.10;52.30
41756;DHT22;27435;48.480;9.258;2023-07-13T10:56:08;25.00;51.90
41756;DHT22;27435;48.480;9.258;2023-07-13T10:58:43;25.00;51.50
41756;DHT22;27435;48.480;9.258;2023-07-13T11:01:14;25.00;52.10
41756;DHT22;27435;48.480;9.258;2023-07-13T11:13:56;25.50;51.70
41756;DHT22;27435;48.480;9.258;2023-07-13T11:19:38;25.70;51.00
41756;DHT22;27435;48.480;9.258;2023-07-13T11:27:36;25.20;51.70
41756;DHT22;27435;48.480;9.258;2023-07-13T11:38:37;25.90;51.30
41756;DHT22;27435;48.480;9.258;2023-07-13T11:41:22;26.10;49.60
41756;DHT22;27435;48.480;9.258;2023-07-13T11:43:49;26.20;48.90
41756;DHT22;27435;48.480;9.258;2023-07-13T11:46:19;26.40;49.40
41756;DHT22;27435;48.480;9.258;2023-07-13T11:48:46;26.10;49.70
41756;DHT22;27435;48.480;9.258;2023-07-13T11:53:46;26.50;49.90
41756;DHT22;27435;48.480;9.258;2023-07-13T11:56:13;25.70;50.30
41756;DHT22;27435;48.480;9.258;2023-07-13T11:58:39;25.80;50.50
41756;DHT22;27435;48.480;9.258;2023-07-13T12:01:05;25.90;50.20
41756;DHT22;27435;48.480;9.258;2023-07-13T12:03:32;26.10;50.00
41756;DHT22;27435;48.480;9.258;2023-07-13T12:06:05;26.00;49.40
41756;DHT22;27435;48.480;9.258;2023-07-13T12:08:31;26.40;49.10
41756;DHT22;27435;48.480;9.258;2023-07-13T12:11:09;26.90;47.50
41756;DHT22;27435;48.480;9.258;2023-07-13T12:13:38;27.40;47.50
41756;DHT22;27435;48.480;9.258;2023-07-13T12:16:22;27.80;45.50
41756;DHT22;27435;48.480;9.258;2023-07-13T12:18:52;27.70;45.80
41756;DHT22;27435;48.480;9.258;2023-07-13T12:21:19;27.80;46.40
41756;DHT22;27435;48.480;9.258;2023-07-13T12:23:48;27.60;45.70
41756;DHT22;27435;48.480;9.258;2023-07-13T12:26:15;27.30;45.80
41756;DHT22;27435;48.480;9.258;2023-07-13T12:28:53;27.30;45.50
41756;DHT22;27435;48.480;9.258;2023-07-13T12:31:45;27.00;46.40
41756;DHT22;27435;48.480;9.258;2023-07-13T12:34:17;27.10;47.40
41756;DHT22;27435;48.480;9.258;2023-07-13T12:36:49;27.10;48.00
41756;DHT22;27435;48.480;9.258;2023-07-13T12:41:42;26.80;47.30
41756;DHT22;27435;48.480;9.258;2023-07-13T12:44:15;26.60;47.90
41756;DHT22;27435;48.480;9.258;2023-07-13T12:46:58;26.40;48.60
41756;DHT22;27435;48.480;9.258;2023-07-13T12:49:28;26.50;47.90
41756;DHT22;27435;48.480;9.258;2023-07-13T12:51:59;26.20;49.20
41756;DHT22;27435;48.480;9.258;2023-07-13T12:54:26;26.40;48.10
41756;DHT22;27435;48.480;9.258;2023-07-13T12:56:53;27.00;47.10
41756;DHT22;27435;48.480;9.258;2023-07-13T12:59:21;27.30;46.70
41756;DHT22;27435;48.480;9.258;2023-07-13T13:01:48;28.00;45.00
41756;DHT22;27435;48.480;9.258;2023-07-13T13:04:15;28.50;44.20
41756;DHT22;27435;48.480;9.258;2023-07-13T13:06:41;28.60;44.30
41756;DHT22;27435;48.480;9.258;2023-07-13T13:09:16;28.20;45.00
41756;DHT22;27435;48.480;9.258;2023-07-13T13:11:43;28.10;43.80
41756;DHT22;27435;48.480;9.258;2023-07-13T13:14:09;28.20;45.10
41756;DHT22;27435;48.480;9.258;2023-07-13T13:16:50;28.20;45.10
41756;DHT22;27435;48.480;9.258;2023-07-13T13:21:43;27.40;45.30
41756;DHT22;27435;48.480;9.258;2023-07-13T13:24:14;27.00;45.70
41756;DHT22;27435;48.480;9.258;2023-07-13T13:26:40;26.80;46.00
41756;DHT22;27435;48.480;9.258;2023-07-13T13:29:12;27.30;45.40
41756;DHT22;27435;48.480;9.258;2023-07-13T13:31:39;27.50;45.00
41756;DHT22;27435;48.480;9.258;2023-07-13T13:34:11;27.80;43.70
41756;DHT22;27435;48.480;9.258;2023-07-13T13:36:37;27.80;44.30
41756;DHT22;27435;48.480;9.258;2023-07-13T13:39:15;28.30;43.90
41756;DHT22;27435;48.480;9.258;2023-07-13T13:41:42;28.40;43.30
41756;DHT22;27435;48.480;9.258;2023-07-13T13:44:09;28.00;43.10
41756;DHT22;27435;48.480;9.258;2023-07-13T13:46:35;27.60;42.30
41756;DHT22;27435;48.480;9.258;2023-07-13T13:49:01;27.90;44.30
41756;DHT22;27435;48.480;9.258;2023-07-13T13:51:28;28.50;42.80
41756;DHT22;27435;48.480;9.258;2023-07-13T13:53:55;28.30;42.40
41756;DHT22;27435;48.480;9.258;2023-07-13T13:56:20;28.00;43.00
41756;DHT22;27435;48.480;9.258;2023-07-13T13:58:46;29.00;41.80
41756;DHT22;27435;48.480;9.258;2023-07-13T14:01:22;29.40;42.00
41756;DHT22;27435;48.480;9.258;2023-07-13T14:03:48;29.60;40.50
41756;DHT22;27435;48.480;9.258;2023-07-13T14:06:16;29.70;40.30
41756;DHT22;27435;48.480;9.258;2023-07-13T14:08:42;30.60;39.40
41756;DHT22;27435;48.480;9.258;2023-07-13T14:11:13;30.90;38.70
41756;DHT22;27435;48.480;9.258;2023-07-13T14:13:45;30.50;39.60
41756;DHT22;27435;48.480;9.258;2023-07-13T14:16:20;29.50;40.40
41756;DHT22;27435;48.480;9.258;2023-07-13T14:18:48;28.70;42.00
41756;DHT22;27435;48.480;9.258;2023-07-13T14:21:16;28.10;42.40
41756;DHT22;27435;48.480;9.258;2023-07-13T14:23:43;27.80;43.10
41756;DHT22;27435;48.480;9.258;2023-07-13T14:26:15;27.80;42.90
41756;DHT22;27435;48.480;9.258;2023-07-13T14:28:44;28.30;42.60
41756;DHT22;27435;48.480;9.258;2023-07-13T14:31:15;29.00;41.70
41756;DHT22;27435;48.480;9.258;2023-07-13T14:33:41;29.40;41.60
41756;DHT22;27435;48.480;9.258;2023-07-13T14:36:44;29.70;40.80
41756;DHT22;27435;48.480;9.258;2023-07-13T14:39:19;29.80;39.90
41756;DHT22;27435;48.480;9.258;2023-07-13T14:41:45;29.20;39.90
41756;DHT22;27435;48.480;9.258;2023-07-13T14:44:17;28.40;41.10
41756;DHT22;27435;48.480;9.258;2023-07-13T14:46:44;28.50;41.70
41756;DHT22;27435;48.480;9.258;2023-07-13T14:51:49;29.10;40.30
41756;DHT22;27435;48.480;9.258;2023-07-13T14:54:14;28.50;40.60
41756;DHT22;27435;48.480;9.258;2023-07-13T14:56:40;29.00;40.80
41756;DHT22;27435;48.480;9.258;2023-07-13T14:59:06;29.90;39.20
41756;DHT22;27435;48.480;9.258;2023-07-13T15:01:34;30.90;38.10
41756;DHT22;27435;48.480;9.258;2023-07-13T15:04:00;30.00;39.20
41756;DHT22;27435;48.480;9.258;2023-07-13T15:06:25;30.00;38.90
41756;DHT22;27435;48.480;9.258;2023-07-13T15:08:51;30.40;39.20
41756;DHT22;27435;48.480;9.258;2023-07-13T15:11:17;31.10;38.20
41756;DHT22;27435;48.480;9.258;2023-07-13T15:13:43;31.70;36.50
41756;DHT22;27435;48.480;9.258;2023-07-13T15:16:50;31.50;36.90
41756;DHT22;27435;48.480;9.258;2023-07-13T15:19:18;31.70;36.30
41756;DHT22;27435;48.480;9.258;2023-07-13T15:21:44;30.80;37.20
41756;DHT22;27435;48.480;9.258;2023-07-13T15:24:11;30.30;37.80
41756;DHT22;27435;48.480;9.258;2023-07-13T15:26:36;30.60;38.00
41756;DHT22;27435;48.480;9.258;2023-07-13T15:29:03;30.90;36.90
41756;DHT22;27435;48.480;9.258;2023-07-13T15:31:29;30.30;37.20
41756;DHT22;27435;48.480;9.258;2023-07-13T15:33:57;30.20;38.10
41756;DHT22;27435;48.480;9.258;2023-07-13T15:36:24;30.10;38.60
41756;DHT22;27435;48.480;9.258;2023-07-13T15:38:54;28.70;40.70
41756;DHT22;27435;48.480;9.258;2023-07-13T15:41:26;27.70;41.60
41756;DHT22;27435;48.480;9.258;2023-07-13T15:43:56;27.00;42.80
41756;DHT22;27435;48.480;9.258;2023-07-13T15:46:26;27.00;43.00
41756;DHT22;27435;48.480;9.258;2023-07-13T15:48:53;28.10;41.60
41756;DHT22;27435;48.480;9.258;2023-07-13T15:51:30;28.10;40.90
41756;DHT22;27435;48.480;9.258;2023-07-13T15:54:00;27.80;41.80
41756;DHT22;27435;48.480;9.258;2023-07-13T15:56:35;29.50;39.90
41756;DHT22;27435;48.480;9.258;2023-07-13T15:59:01;30.20;38.50
41756;DHT22;27435;48.480;9.258;2023-07-13T16:01:32;30.00;38.50
41756;DHT22;27435;48.480;9.258;2023-07-13T16:03:58;29.70;40.00
41756;DHT22;27435;48.480;9.258;2023-07-13T16:06:33;30.60;39.20
41756;DHT22;27435;48.480;9.258;2023-07-13T16:09:01;31.70;38.10
41756;DHT22;27435;48.480;9.258;2023-07-13T16:11:33;31.10;38.80
41756;DHT22;27435;48.480;9.258;2023-07-13T16:14:00;31.10;40.20
41756;DHT22;27435;48.480;9.258;2023-07-13T16:16:31;31.40;39.60
41756;DHT22;27435;48.480;9.258;2023-07-13T16:18:59;30.50;39.50
41756;DHT22;27435;48.480;9.258;2023-07-13T16:21:27;29.60;41.90
41756;DHT22;27435;48.480;9.258;2023-07-13T16:23:55;28.70;43.80
41756;DHT22;27435;48.480;9.258;2023-07-13T16:26:29;27.60;45.30
41756;DHT22;27435;48.480;9.258;2023-07-13T16:31:36;28.20;45.50
41756;DHT22;27435;48.480;9.258;2023-07-13T16:34:01;28.20;44.60